Aviation Digital Data Service (ADDS)

Output produced by METARs form (0645 UTC 18 September 2021)
found at http://www.aviationweather.gov/metar/data/
 
METAR text: LTBJ 180620Z 17004KT 110V200 CAVOK 23/12 Q1013 NOSIG RMK RWY16 21007KT
Conditions at: LTBJ (IZMIR/ADNAN MEND, TR) observed 0620 UTC 18 September 2021
Temperature: 23.0°C (73°F)
Dewpoint: 12.0°C (54°F) [RH = 50%]
Pressure (altimeter): 29.91 inches Hg (1013.0 mb)
Winds: from the S (170 degrees) at 5 MPH (4 knots; 2.1 m/s)
Visibility: 6 or more miles (10+ km)
Ceiling: ceiling and visibility are OK
Clouds: unknown
Weather: no significant weather observed at this time

METAR text: LTBJ 180550Z 14005KT 120V220 CAVOK 22/12 Q1013 NOSIG RMK RWY16 19007KT 150V210
Conditions at: LTBJ (IZMIR/ADNAN MEND, TR) observed 0550 UTC 18 September 2021
Temperature: 22.0°C (72°F)
Dewpoint: 12.0°C (54°F) [RH = 53%]
Pressure (altimeter): 29.91 inches Hg (1013.0 mb)
Winds: from the SE (140 degrees) at 6 MPH (5 knots; 2.6 m/s)
Visibility: 6 or more miles (10+ km)
Ceiling: ceiling and visibility are OK
Clouds: unknown
Weather: no significant weather observed at this time

METAR text: LTBJ 180520Z 16003KT 090V200 CAVOK 21/12 Q1013 NOSIG RMK RWY16 18005KT 150V220
Conditions at: LTBJ (IZMIR/ADNAN MEND, TR) observed 0520 UTC 18 September 2021
Temperature: 21.0°C (70°F)
Dewpoint: 12.0°C (54°F) [RH = 56%]
Pressure (altimeter): 29.91 inches Hg (1013.0 mb)
Winds: from the SSE (160 degrees) at 3 MPH (3 knots; 1.5 m/s)
Visibility: 6 or more miles (10+ km)
Ceiling: ceiling and visibility are OK
Clouds: unknown
Weather: no significant weather observed at this time

METAR text: LTBJ 180450Z VRB02KT CAVOK 20/12 Q1013 NOSIG RMK RWY16 17005KT 150V210
Conditions at: LTBJ (IZMIR/ADNAN MEND, TR) observed 0450 UTC 18 September 2021
Temperature: 20.0°C (68°F)
Dewpoint: 12.0°C (54°F) [RH = 60%]
Pressure (altimeter): 29.91 inches Hg (1013.0 mb)
Winds: variable direction winds at 2 MPH (2 knots; 1.0 m/s)
Visibility: 6 or more miles (10+ km)
Ceiling: ceiling and visibility are OK
Clouds: unknown
Weather: no significant weather observed at this time

METAR text: LTBJ 180420Z 17003KT 110V190 CAVOK 18/12 Q1013 NOSIG RMK RWY16 19007KT
Conditions at: LTBJ (IZMIR/ADNAN MEND, TR) observed 0420 UTC 18 September 2021
Temperature: 18.0°C (64°F)
Dewpoint: 12.0°C (54°F) [RH = 68%]
Pressure (altimeter): 29.91 inches Hg (1013.0 mb)
Winds: from the S (170 degrees) at 3 MPH (3 knots; 1.5 m/s)
Visibility: 6 or more miles (10+ km)
Ceiling: ceiling and visibility are OK
Clouds: unknown
Weather: no significant weather observed at this time

METAR text: LTBJ 180350Z 15003KT 090V210 CAVOK 19/12 Q1013 NOSIG RMK RWY16 18006KT
Conditions at: LTBJ (IZMIR/ADNAN MEND, TR) observed 0350 UTC 18 September 2021
Temperature: 19.0°C (66°F)
Dewpoint: 12.0°C (54°F) [RH = 64%]
Pressure (altimeter): 29.91 inches Hg (1013.0 mb)
Winds: from the SSE (150 degrees) at 3 MPH (3 knots; 1.5 m/s)
Visibility: 6 or more miles (10+ km)
Ceiling: ceiling and visibility are OK
Clouds: unknown
Weather: no significant weather observed at this time

METAR text: LTBJ 180320Z 20003KT CAVOK 18/12 Q1013 NOSIG RMK RWY16 23008KT
Conditions at: LTBJ (IZMIR/ADNAN MEND, TR) observed 0320 UTC 18 September 2021
Temperature: 18.0°C (64°F)
Dewpoint: 12.0°C (54°F) [RH = 68%]
Pressure (altimeter): 29.91 inches Hg (1013.0 mb)
Winds: from the SSW (200 degrees) at 3 MPH (3 knots; 1.5 m/s)
Visibility: 6 or more miles (10+ km)
Ceiling: ceiling and visibility are OK
Clouds: unknown
Weather: no significant weather observed at this time

METAR text: LTBJ 180250Z 16003KT 070V230 CAVOK 18/12 Q1013 NOSIG RMK RWY16 19006KT
Conditions at: LTBJ (IZMIR/ADNAN MEND, TR) observed 0250 UTC 18 September 2021
Temperature: 18.0°C (64°F)
Dewpoint: 12.0°C (54°F) [RH = 68%]
Pressure (altimeter): 29.91 inches Hg (1013.0 mb)
Winds: from the SSE (160 degrees) at 3 MPH (3 knots; 1.5 m/s)
Visibility: 6 or more miles (10+ km)
Ceiling: ceiling and visibility are OK
Clouds: unknown
Weather: no significant weather observed at this time

METAR text: LTBJ 180220Z VRB02KT CAVOK 18/12 Q1013 NOSIG RMK RWY16 20006KT
Conditions at: LTBJ (IZMIR/ADNAN MEND, TR) observed 0220 UTC 18 September 2021
Temperature: 18.0°C (64°F)
Dewpoint: 12.0°C (54°F) [RH = 68%]
Pressure (altimeter): 29.91 inches Hg (1013.0 mb)
Winds: variable direction winds at 2 MPH (2 knots; 1.0 m/s)
Visibility: 6 or more miles (10+ km)
Ceiling: ceiling and visibility are OK
Clouds: unknown
Weather: no significant weather observed at this time

METAR text: LTBJ 180150Z 19003KT 150V220 CAVOK 19/13 Q1013 NOSIG RMK RWY16 21007KT
Conditions at: LTBJ (IZMIR/ADNAN MEND, TR) observed 0150 UTC 18 September 2021
Temperature: 19.0°C (66°F)
Dewpoint: 13.0°C (55°F) [RH = 68%]
Pressure (altimeter): 29.91 inches Hg (1013.0 mb)
Winds: from the S (190 degrees) at 3 MPH (3 knots; 1.5 m/s)
Visibility: 6 or more miles (10+ km)
Ceiling: ceiling and visibility are OK
Clouds: unknown
Weather: no significant weather observed at this time

METAR text: LTBJ 180120Z 16004KT 080V190 CAVOK 19/12 Q1013 NOSIG RMK RWY16 21006KT
Conditions at: LTBJ (IZMIR/ADNAN MEND, TR) observed 0120 UTC 18 September 2021
Temperature: 19.0°C (66°F)
Dewpoint: 12.0°C (54°F) [RH = 64%]
Pressure (altimeter): 29.91 inches Hg (1013.0 mb)
Winds: from the SSE (160 degrees) at 5 MPH (4 knots; 2.1 m/s)
Visibility: 6 or more miles (10+ km)
Ceiling: ceiling and visibility are OK
Clouds: unknown
Weather: no significant weather observed at this time

METAR text: LTBJ 180050Z 00000KT CAVOK 19/11 Q1013 NOSIG RMK RWY16 19006KT
Conditions at: LTBJ (IZMIR/ADNAN MEND, TR) observed 0050 UTC 18 September 2021
Temperature: 19.0°C (66°F)
Dewpoint: 11.0°C (52°F) [RH = 60%]
Pressure (altimeter): 29.91 inches Hg (1013.0 mb)
Winds: calm
Visibility: 6 or more miles (10+ km)
Ceiling: ceiling and visibility are OK
Clouds: unknown
Weather: no significant weather observed at this time

METAR text: LTBJ 180020Z VRB01KT CAVOK 19/11 Q1013 NOSIG RMK RWY16 17004KT
Conditions at: LTBJ (IZMIR/ADNAN MEND, TR) observed 0020 UTC 18 September 2021
Temperature: 19.0°C (66°F)
Dewpoint: 11.0°C (52°F) [RH = 60%]
Pressure (altimeter): 29.91 inches Hg (1013.0 mb)
Winds: variable direction winds at 1 MPH (1 knots; 0.5 m/s)
Visibility: 6 or more miles (10+ km)
Ceiling: ceiling and visibility are OK
Clouds: unknown
Weather: no significant weather observed at this time

METAR text: LTBJ 172350Z VRB02KT CAVOK 19/11 Q1013 NOSIG RMK RWY16 VRB02KT
Conditions at: LTBJ (IZMIR/ADNAN MEND, TR) observed 2350 UTC 17 September 2021
Temperature: 19.0°C (66°F)
Dewpoint: 11.0°C (52°F) [RH = 60%]
Pressure (altimeter): 29.91 inches Hg (1013.0 mb)
Winds: variable direction winds at 2 MPH (2 knots; 1.0 m/s)
Visibility: 6 or more miles (10+ km)
Ceiling: ceiling and visibility are OK
Clouds: unknown
Weather: no significant weather observed at this time

METAR text: LTBJ 172320Z VRB02KT CAVOK 19/10 Q1013 NOSIG RMK RWY16 VRB02KT
Conditions at: LTBJ (IZMIR/ADNAN MEND, TR) observed 2320 UTC 17 September 2021
Temperature: 19.0°C (66°F)
Dewpoint: 10.0°C (50°F) [RH = 56%]
Pressure (altimeter): 29.91 inches Hg (1013.0 mb)
Winds: variable direction winds at 2 MPH (2 knots; 1.0 m/s)
Visibility: 6 or more miles (10+ km)
Ceiling: ceiling and visibility are OK
Clouds: unknown
Weather: no significant weather observed at this time

METAR text: LTBJ 172250Z 00000KT CAVOK 19/10 Q1013 NOSIG RMK RWY16 12002KT
Conditions at: LTBJ (IZMIR/ADNAN MEND, TR) observed 2250 UTC 17 September 2021
Temperature: 19.0°C (66°F)
Dewpoint: 10.0°C (50°F) [RH = 56%]
Pressure (altimeter): 29.91 inches Hg (1013.0 mb)
Winds: calm
Visibility: 6 or more miles (10+ km)
Ceiling: ceiling and visibility are OK
Clouds: unknown
Weather: no significant weather observed at this time

METAR text: LTBJ 172220Z 18002KT CAVOK 20/10 Q1013 NOSIG RMK RWY16 14003KT 120V190
Conditions at: LTBJ (IZMIR/ADNAN MEND, TR) observed 2220 UTC 17 September 2021
Temperature: 20.0°C (68°F)
Dewpoint: 10.0°C (50°F) [RH = 53%]
Pressure (altimeter): 29.91 inches Hg (1013.0 mb)
Winds: from the S (180 degrees) at 2 MPH (2 knots; 1.0 m/s)
Visibility: 6 or more miles (10+ km)
Ceiling: ceiling and visibility are OK
Clouds: unknown
Weather: no significant weather observed at this time

METAR text: LTBJ 172150Z VRB02KT CAVOK 20/11 Q1013 NOSIG RMK RWY16 12005KT
Conditions at: LTBJ (IZMIR/ADNAN MEND, TR) observed 2150 UTC 17 September 2021
Temperature: 20.0°C (68°F)
Dewpoint: 11.0°C (52°F) [RH = 56%]
Pressure (altimeter): 29.91 inches Hg (1013.0 mb)
Winds: variable direction winds at 2 MPH (2 knots; 1.0 m/s)
Visibility: 6 or more miles (10+ km)
Ceiling: ceiling and visibility are OK
Clouds: unknown
Weather: no significant weather observed at this time

METAR text: LTBJ 172120Z 00000KT CAVOK 22/10 Q1013 NOSIG RMK RWY16 13005KT
Conditions at: LTBJ (IZMIR/ADNAN MEND, TR) observed 2120 UTC 17 September 2021
Temperature: 22.0°C (72°F)
Dewpoint: 10.0°C (50°F) [RH = 46%]
Pressure (altimeter): 29.91 inches Hg (1013.0 mb)
Winds: calm
Visibility: 6 or more miles (10+ km)
Ceiling: ceiling and visibility are OK
Clouds: unknown
Weather: no significant weather observed at this time

METAR text: LTBJ 172050Z 00000KT CAVOK 22/10 Q1013 NOSIG RMK RWY16 16003KT
Conditions at: LTBJ (IZMIR/ADNAN MEND, TR) observed 2050 UTC 17 September 2021
Temperature: 22.0°C (72°F)
Dewpoint: 10.0°C (50°F) [RH = 46%]
Pressure (altimeter): 29.91 inches Hg (1013.0 mb)
Winds: calm
Visibility: 6 or more miles (10+ km)
Ceiling: ceiling and visibility are OK
Clouds: unknown
Weather: no significant weather observed at this time

METAR text: LTBJ 172020Z VRB02KT CAVOK 22/10 Q1013 NOSIG RMK RWY16 13002KT
Conditions at: LTBJ (IZMIR/ADNAN MEND, TR) observed 2020 UTC 17 September 2021
Temperature: 22.0°C (72°F)
Dewpoint: 10.0°C (50°F) [RH = 46%]
Pressure (altimeter): 29.91 inches Hg (1013.0 mb)
Winds: variable direction winds at 2 MPH (2 knots; 1.0 m/s)
Visibility: 6 or more miles (10+ km)
Ceiling: ceiling and visibility are OK
Clouds: unknown
Weather: no significant weather observed at this time

METAR text: LTBJ 171950Z VRB02KT CAVOK 23/10 Q1013 NOSIG RMK RWY16 13003KT
Conditions at: LTBJ (IZMIR/ADNAN MEND, TR) observed 1950 UTC 17 September 2021
Temperature: 23.0°C (73°F)
Dewpoint: 10.0°C (50°F) [RH = 44%]
Pressure (altimeter): 29.91 inches Hg (1013.0 mb)
Winds: variable direction winds at 2 MPH (2 knots; 1.0 m/s)
Visibility: 6 or more miles (10+ km)
Ceiling: ceiling and visibility are OK
Clouds: unknown
Weather: no significant weather observed at this time

METAR text: LTBJ 171920Z VRB02KT CAVOK 24/10 Q1013 NOSIG RMK RWY16 VRB01KT
Conditions at: LTBJ (IZMIR/ADNAN MEND, TR) observed 1920 UTC 17 September 2021
Temperature: 24.0°C (75°F)
Dewpoint: 10.0°C (50°F) [RH = 41%]
Pressure (altimeter): 29.91 inches Hg (1013.0 mb)
Winds: variable direction winds at 2 MPH (2 knots; 1.0 m/s)
Visibility: 6 or more miles (10+ km)
Ceiling: ceiling and visibility are OK
Clouds: unknown
Weather: no significant weather observed at this time

METAR text: LTBJ 171850Z 35005KT CAVOK 24/10 Q1013 NOSIG RMK RWY16 VRB02KT
Conditions at: LTBJ (IZMIR/ADNAN MEND, TR) observed 1850 UTC 17 September 2021
Temperature: 24.0°C (75°F)
Dewpoint: 10.0°C (50°F) [RH = 41%]
Pressure (altimeter): 29.91 inches Hg (1013.0 mb)
Winds: from the N (350 degrees) at 6 MPH (5 knots; 2.6 m/s)
Visibility: 6 or more miles (10+ km)
Ceiling: ceiling and visibility are OK
Clouds: unknown
Weather: no significant weather observed at this time

METAR text: LTBJ 171820Z 02006KT CAVOK 26/10 Q1013 NOSIG RMK RWY16 06004KT 020V080
Conditions at: LTBJ (IZMIR/ADNAN MEND, TR) observed 1820 UTC 17 September 2021
Temperature: 26.0°C (79°F)
Dewpoint: 10.0°C (50°F) [RH = 37%]
Pressure (altimeter): 29.91 inches Hg (1013.0 mb)
Winds: from the NNE (20 degrees) at 7 MPH (6 knots; 3.1 m/s)
Visibility: 6 or more miles (10+ km)
Ceiling: ceiling and visibility are OK
Clouds: unknown
Weather: no significant weather observed at this time

METAR text: LTBJ 171750Z 03007KT CAVOK 27/10 Q1013 NOSIG RMK RWY16 08006KT 030V110
Conditions at: LTBJ (IZMIR/ADNAN MEND, TR) observed 1750 UTC 17 September 2021
Temperature: 27.0°C (81°F)
Dewpoint: 10.0°C (50°F) [RH = 34%]
Pressure (altimeter): 29.91 inches Hg (1013.0 mb)
Winds: from the NNE (30 degrees) at 8 MPH (7 knots; 3.6 m/s)
Visibility: 6 or more miles (10+ km)
Ceiling: ceiling and visibility are OK
Clouds: unknown
Weather: no significant weather observed at this time

METAR text: LTBJ 171720Z 05006KT 010V080 CAVOK 26/09 Q1013 NOSIG RMK RWY16 09004KT 030V140
Conditions at: LTBJ (IZMIR/ADNAN MEND, TR) observed 1720 UTC 17 September 2021
Temperature: 26.0°C (79°F)
Dewpoint: 9.0°C (48°F) [RH = 34%]
Pressure (altimeter): 29.91 inches Hg (1013.0 mb)
Winds: from the NE (50 degrees) at 7 MPH (6 knots; 3.1 m/s)
Visibility: 6 or more miles (10+ km)
Ceiling: ceiling and visibility are OK
Clouds: unknown
Weather: no significant weather observed at this time

METAR text: LTBJ 171650Z 03006KT CAVOK 27/09 Q1013 NOSIG RMK RWY16 35010KT
Conditions at: LTBJ (IZMIR/ADNAN MEND, TR) observed 1650 UTC 17 September 2021
Temperature: 27.0°C (81°F)
Dewpoint: 9.0°C (48°F) [RH = 32%]
Pressure (altimeter): 29.91 inches Hg (1013.0 mb)
Winds: from the NNE (30 degrees) at 7 MPH (6 knots; 3.1 m/s)
Visibility: 6 or more miles (10+ km)
Ceiling: ceiling and visibility are OK
Clouds: unknown
Weather: no significant weather observed at this time

METAR text: LTBJ 171620Z 34010KT 320V020 CAVOK 29/09 Q1013 NOSIG RMK RWY16 35010KT
Conditions at: LTBJ (IZMIR/ADNAN MEND, TR) observed 1620 UTC 17 September 2021
Temperature: 29.0°C (84°F)
Dewpoint: 9.0°C (48°F) [RH = 29%]
Pressure (altimeter): 29.91 inches Hg (1013.0 mb)
Winds: from the NNW (340 degrees) at 12 MPH (10 knots; 5.1 m/s)
Visibility: 6 or more miles (10+ km)
Ceiling: ceiling and visibility are OK
Clouds: unknown
Weather: no significant weather observed at this time

METAR text: LTBJ 171550Z 33010KT 320V020 CAVOK 29/10 Q1013 NOSIG RMK RWY16 34012KT
Conditions at: LTBJ (IZMIR/ADNAN MEND, TR) observed 1550 UTC 17 September 2021
Temperature: 29.0°C (84°F)
Dewpoint: 10.0°C (50°F) [RH = 31%]
Pressure (altimeter): 29.91 inches Hg (1013.0 mb)
Winds: from the NNW (330 degrees) at 12 MPH (10 knots; 5.1 m/s)
Visibility: 6 or more miles (10+ km)
Ceiling: ceiling and visibility are OK
Clouds: unknown
Weather: no significant weather observed at this time

METAR text: LTBJ 171520Z 33011KT 310V010 CAVOK 30/10 Q1013 NOSIG RMK RWY16 35013KT
Conditions at: LTBJ (IZMIR/ADNAN MEND, TR) observed 1520 UTC 17 September 2021
Temperature: 30.0°C (86°F)
Dewpoint: 10.0°C (50°F) [RH = 29%]
Pressure (altimeter): 29.91 inches Hg (1013.0 mb)
Winds: from the NNW (330 degrees) at 13 MPH (11 knots; 5.7 m/s)
Visibility: 6 or more miles (10+ km)
Ceiling: ceiling and visibility are OK
Clouds: unknown
Weather: no significant weather observed at this time

METAR text: LTBJ 171450Z 34013KT CAVOK 30/10 Q1013 NOSIG RMK RWY16 34015KT
Conditions at: LTBJ (IZMIR/ADNAN MEND, TR) observed 1450 UTC 17 September 2021
Temperature: 30.0°C (86°F)
Dewpoint: 10.0°C (50°F) [RH = 29%]
Pressure (altimeter): 29.91 inches Hg (1013.0 mb)
Winds: from the NNW (340 degrees) at 15 MPH (13 knots; 6.7 m/s)
Visibility: 6 or more miles (10+ km)
Ceiling: ceiling and visibility are OK
Clouds: unknown
Weather: no significant weather observed at this time

METAR text: LTBJ 171420Z 34012KT 300V010 CAVOK 31/10 Q1013 NOSIG RMK RWY16 35014KT
Conditions at: LTBJ (IZMIR/ADNAN MEND, TR) observed 1420 UTC 17 September 2021
Temperature: 31.0°C (88°F)
Dewpoint: 10.0°C (50°F) [RH = 27%]
Pressure (altimeter): 29.91 inches Hg (1013.0 mb)
Winds: from the NNW (340 degrees) at 14 MPH (12 knots; 6.2 m/s)
Visibility: 6 or more miles (10+ km)
Ceiling: ceiling and visibility are OK
Clouds: unknown
Weather: no significant weather observed at this time

METAR text: LTBJ 171350Z 35009KT CAVOK 30/11 Q1013 NOSIG RMK RWY16 35011KT 320V020
Conditions at: LTBJ (IZMIR/ADNAN MEND, TR) observed 1350 UTC 17 September 2021
Temperature: 30.0°C (86°F)
Dewpoint: 11.0°C (52°F) [RH = 31%]
Pressure (altimeter): 29.91 inches Hg (1013.0 mb)
Winds: from the N (350 degrees) at 10 MPH (9 knots; 4.6 m/s)
Visibility: 6 or more miles (10+ km)
Ceiling: ceiling and visibility are OK
Clouds: unknown
Weather: no significant weather observed at this time

METAR text: LTBJ 171320Z 35011KT 320V030 CAVOK 31/10 Q1013 NOSIG RMK RWY16 35009KT
Conditions at: LTBJ (IZMIR/ADNAN MEND, TR) observed 1320 UTC 17 September 2021
Temperature: 31.0°C (88°F)
Dewpoint: 10.0°C (50°F) [RH = 27%]
Pressure (altimeter): 29.91 inches Hg (1013.0 mb)
Winds: from the N (350 degrees) at 13 MPH (11 knots; 5.7 m/s)
Visibility: 6 or more miles (10+ km)
Ceiling: ceiling and visibility are OK
Clouds: unknown
Weather: no significant weather observed at this time

METAR text: LTBJ 171250Z 36009KT 340V040 CAVOK 31/10 Q1013 NOSIG RMK RWY16 01009KT 350V050
Conditions at: LTBJ (IZMIR/ADNAN MEND, TR) observed 1250 UTC 17 September 2021
Temperature: 31.0°C (88°F)
Dewpoint: 10.0°C (50°F) [RH = 27%]
Pressure (altimeter): 29.91 inches Hg (1013.0 mb)
Winds: from the N (360 degrees) at 10 MPH (9 knots; 4.6 m/s)
Visibility: 6 or more miles (10+ km)
Ceiling: ceiling and visibility are OK
Clouds: unknown
Weather: no significant weather observed at this time

METAR text: LTBJ 171220Z 34010KT 310V010 CAVOK 31/10 Q1013 NOSIG RMK RWY16 36008KT 330V030
Conditions at: LTBJ (IZMIR/ADNAN MEND, TR) observed 1220 UTC 17 September 2021
Temperature: 31.0°C (88°F)
Dewpoint: 10.0°C (50°F) [RH = 27%]
Pressure (altimeter): 29.91 inches Hg (1013.0 mb)
Winds: from the NNW (340 degrees) at 12 MPH (10 knots; 5.1 m/s)
Visibility: 6 or more miles (10+ km)
Ceiling: ceiling and visibility are OK
Clouds: unknown
Weather: no significant weather observed at this time

METAR text: LTBJ 171150Z 35009KT 310V030 CAVOK 30/10 Q1013 NOSIG RMK RWY16 35010KT 320V050
Conditions at: LTBJ (IZMIR/ADNAN MEND, TR) observed 1150 UTC 17 September 2021
Temperature: 30.0°C (86°F)
Dewpoint: 10.0°C (50°F) [RH = 29%]
Pressure (altimeter): 29.91 inches Hg (1013.0 mb)
Winds: from the N (350 degrees) at 10 MPH (9 knots; 4.6 m/s)
Visibility: 6 or more miles (10+ km)
Ceiling: ceiling and visibility are OK
Clouds: unknown
Weather: no significant weather observed at this time

METAR text: LTBJ 171120Z 36009KT 310V040 CAVOK 30/10 Q1014 NOSIG RMK RWY16 36010KT 310V040
Conditions at: LTBJ (IZMIR/ADNAN MEND, TR) observed 1120 UTC 17 September 2021
Temperature: 30.0°C (86°F)
Dewpoint: 10.0°C (50°F) [RH = 29%]
Pressure (altimeter): 29.94 inches Hg (1014.0 mb)
Winds: from the N (360 degrees) at 10 MPH (9 knots; 4.6 m/s)
Visibility: 6 or more miles (10+ km)
Ceiling: ceiling and visibility are OK
Clouds: unknown
Weather: no significant weather observed at this time

METAR text: LTBJ 171050Z 34010KT 300V010 CAVOK 30/10 Q1014 NOSIG RMK RWY16 35008KT 300V050
Conditions at: LTBJ (IZMIR/ADNAN MEND, TR) observed 1050 UTC 17 September 2021
Temperature: 30.0°C (86°F)
Dewpoint: 10.0°C (50°F) [RH = 29%]
Pressure (altimeter): 29.94 inches Hg (1014.0 mb)
Winds: from the NNW (340 degrees) at 12 MPH (10 knots; 5.1 m/s)
Visibility: 6 or more miles (10+ km)
Ceiling: ceiling and visibility are OK
Clouds: unknown
Weather: no significant weather observed at this time

METAR text: LTBJ 171020Z 04013KT 360V080 CAVOK 30/09 Q1014 NOSIG RMK RWY16 02009KT 340V070
Conditions at: LTBJ (IZMIR/ADNAN MEND, TR) observed 1020 UTC 17 September 2021
Temperature: 30.0°C (86°F)
Dewpoint: 9.0°C (48°F) [RH = 27%]
Pressure (altimeter): 29.94 inches Hg (1014.0 mb)
Winds: from the NE (40 degrees) at 15 MPH (13 knots; 6.7 m/s)
Visibility: 6 or more miles (10+ km)
Ceiling: ceiling and visibility are OK
Clouds: unknown
Weather: no significant weather observed at this time

METAR text: LTBJ 170950Z 03015KT CAVOK 29/10 Q1014 NOSIG RMK RWY16 05012KT 350V090
Conditions at: LTBJ (IZMIR/ADNAN MEND, TR) observed 0950 UTC 17 September 2021
Temperature: 29.0°C (84°F)
Dewpoint: 10.0°C (50°F) [RH = 31%]
Pressure (altimeter): 29.94 inches Hg (1014.0 mb)
Winds: from the NNE (30 degrees) at 17 MPH (15 knots; 7.7 m/s)
Visibility: 6 or more miles (10+ km)
Ceiling: ceiling and visibility are OK
Clouds: unknown
Weather: no significant weather observed at this time

METAR text: LTBJ 170920Z 01014KT 330V040 CAVOK 29/09 Q1015 NOSIG RMK RWY16 03010KT 350V070
Conditions at: LTBJ (IZMIR/ADNAN MEND, TR) observed 0920 UTC 17 September 2021
Temperature: 29.0°C (84°F)
Dewpoint: 9.0°C (48°F) [RH = 29%]
Pressure (altimeter): 29.97 inches Hg (1015.0 mb)
Winds: from the N (10 degrees) at 16 MPH (14 knots; 7.2 m/s)
Visibility: 6 or more miles (10+ km)
Ceiling: ceiling and visibility are OK
Clouds: unknown
Weather: no significant weather observed at this time

METAR text: LTBJ 170850Z 34014KT CAVOK 28/10 Q1015 NOSIG RMK RWY16 01012KT 320V040
Conditions at: LTBJ (IZMIR/ADNAN MEND, TR) observed 0850 UTC 17 September 2021
Temperature: 28.0°C (82°F)
Dewpoint: 10.0°C (50°F) [RH = 32%]
Pressure (altimeter): 29.97 inches Hg (1015.0 mb)
Winds: from the NNW (340 degrees) at 16 MPH (14 knots; 7.2 m/s)
Visibility: 6 or more miles (10+ km)
Ceiling: ceiling and visibility are OK
Clouds: unknown
Weather: no significant weather observed at this time

METAR text: LTBJ 170820Z 34012KT 300V360 CAVOK 27/10 Q1015 NOSIG RMK RWY16 36012KT
Conditions at: LTBJ (IZMIR/ADNAN MEND, TR) observed 0820 UTC 17 September 2021
Temperature: 27.0°C (81°F)
Dewpoint: 10.0°C (50°F) [RH = 34%]
Pressure (altimeter): 29.97 inches Hg (1015.0 mb)
Winds: from the NNW (340 degrees) at 14 MPH (12 knots; 6.2 m/s)
Visibility: 6 or more miles (10+ km)
Ceiling: ceiling and visibility are OK
Clouds: unknown
Weather: no significant weather observed at this time

METAR text: LTBJ 170750Z 35009KT 320V020 CAVOK 27/09 Q1015 NOSIG RMK RWY16 36010KT 320V030
Conditions at: LTBJ (IZMIR/ADNAN MEND, TR) observed 0750 UTC 17 September 2021
Temperature: 27.0°C (81°F)
Dewpoint: 9.0°C (48°F) [RH = 32%]
Pressure (altimeter): 29.97 inches Hg (1015.0 mb)
Winds: from the N (350 degrees) at 10 MPH (9 knots; 4.6 m/s)
Visibility: 6 or more miles (10+ km)
Ceiling: ceiling and visibility are OK
Clouds: unknown
Weather: no significant weather observed at this time

METAR text: LTBJ 170720Z 35010KT 320V020 CAVOK 26/10 Q1015 NOSIG RMK RWY16 01009KT
Conditions at: LTBJ (IZMIR/ADNAN MEND, TR) observed 0720 UTC 17 September 2021
Temperature: 26.0°C (79°F)
Dewpoint: 10.0°C (50°F) [RH = 37%]
Pressure (altimeter): 29.97 inches Hg (1015.0 mb)
Winds: from the N (350 degrees) at 12 MPH (10 knots; 5.1 m/s)
Visibility: 6 or more miles (10+ km)
Ceiling: ceiling and visibility are OK
Clouds: unknown
Weather: no significant weather observed at this time

METAR text: LTBJ 170650Z 35010KT 320V030 CAVOK 25/11 Q1015 NOSIG RMK RWY16 35010KT
Conditions at: LTBJ (IZMIR/ADNAN MEND, TR) observed 0650 UTC 17 September 2021
Temperature: 25.0°C (77°F)
Dewpoint: 11.0°C (52°F) [RH = 41%]
Pressure (altimeter): 29.97 inches Hg (1015.0 mb)
Winds: from the N (350 degrees) at 12 MPH (10 knots; 5.1 m/s)
Visibility: 6 or more miles (10+ km)
Ceiling: ceiling and visibility are OK
Clouds: unknown
Weather: no significant weather observed at this time

METAR text: LTBJ 170620Z 35009KT CAVOK 24/11 Q1015 NOSIG RMK RWY16 36008KT 330V030
Conditions at: LTBJ (IZMIR/ADNAN MEND, TR) observed 0620 UTC 17 September 2021
Temperature: 24.0°C (75°F)
Dewpoint: 11.0°C (52°F) [RH = 44%]
Pressure (altimeter): 29.97 inches Hg (1015.0 mb)
Winds: from the N (350 degrees) at 10 MPH (9 knots; 4.6 m/s)
Visibility: 6 or more miles (10+ km)
Ceiling: ceiling and visibility are OK
Clouds: unknown
Weather: no significant weather observed at this time

METAR text: LTBJ 170550Z 35010KT CAVOK 23/12 Q1015 NOSIG RMK RWY16 36006KT
Conditions at: LTBJ (IZMIR/ADNAN MEND, TR) observed 0550 UTC 17 September 2021
Temperature: 23.0°C (73°F)
Dewpoint: 12.0°C (54°F) [RH = 50%]
Pressure (altimeter): 29.97 inches Hg (1015.0 mb)
Winds: from the N (350 degrees) at 12 MPH (10 knots; 5.1 m/s)
Visibility: 6 or more miles (10+ km)
Ceiling: ceiling and visibility are OK
Clouds: unknown
Weather: no significant weather observed at this time

METAR text: LTBJ 170520Z 01005KT 340V060 CAVOK 21/12 Q1015 NOSIG RMK RWY16 36007KT
Conditions at: LTBJ (IZMIR/ADNAN MEND, TR) observed 0520 UTC 17 September 2021
Temperature: 21.0°C (70°F)
Dewpoint: 12.0°C (54°F) [RH = 56%]
Pressure (altimeter): 29.97 inches Hg (1015.0 mb)
Winds: from the N (10 degrees) at 6 MPH (5 knots; 2.6 m/s)
Visibility: 6 or more miles (10+ km)
Ceiling: ceiling and visibility are OK
Clouds: unknown
Weather: no significant weather observed at this time

METAR text: LTBJ 170450Z 03004KT 340V140 CAVOK 18/10 Q1015 NOSIG RMK RWY16 04005KT 360V070
Conditions at: LTBJ (IZMIR/ADNAN MEND, TR) observed 0450 UTC 17 September 2021
Temperature: 18.0°C (64°F)
Dewpoint: 10.0°C (50°F) [RH = 59%]
Pressure (altimeter): 29.97 inches Hg (1015.0 mb)
Winds: from the NNE (30 degrees) at 5 MPH (4 knots; 2.1 m/s)
Visibility: 6 or more miles (10+ km)
Ceiling: ceiling and visibility are OK
Clouds: unknown
Weather: no significant weather observed at this time

METAR text: LTBJ 170420Z 36004KT CAVOK 16/09 Q1015 NOSIG RMK RWY16 02003KT
Conditions at: LTBJ (IZMIR/ADNAN MEND, TR) observed 0420 UTC 17 September 2021
Temperature: 16.0°C (61°F)
Dewpoint: 9.0°C (48°F) [RH = 63%]
Pressure (altimeter): 29.97 inches Hg (1015.0 mb)
Winds: from the N (360 degrees) at 5 MPH (4 knots; 2.1 m/s)
Visibility: 6 or more miles (10+ km)
Ceiling: ceiling and visibility are OK
Clouds: unknown
Weather: no significant weather observed at this time

METAR text: LTBJ 170350Z 01002KT CAVOK 17/09 Q1015 NOSIG RMK RWY16 VRB02KT
Conditions at: LTBJ (IZMIR/ADNAN MEND, TR) observed 0350 UTC 17 September 2021
Temperature: 17.0°C (63°F)
Dewpoint: 9.0°C (48°F) [RH = 59%]
Pressure (altimeter): 29.97 inches Hg (1015.0 mb)
Winds: from the N (10 degrees) at 2 MPH (2 knots; 1.0 m/s)
Visibility: 6 or more miles (10+ km)
Ceiling: ceiling and visibility are OK
Clouds: unknown
Weather: no significant weather observed at this time

METAR text: LTBJ 170320Z VRB02G13KT CAVOK 17/09 Q1015 BECMG 36012KT RMK RWY16 VRB01KT
Conditions at: LTBJ (IZMIR/ADNAN MEND, TR) observed 0320 UTC 17 September 2021
Temperature: 17.0°C (63°F)
Dewpoint: 9.0°C (48°F) [RH = 59%]
Pressure (altimeter): 29.97 inches Hg (1015.0 mb)
Winds: variable direction winds at 2 MPH (2 knots; 1.0 m/s)
gusting to 15 MPH (13 knots; 6.7 m/s)
Visibility: 6 or more miles (10+ km)
Ceiling: ceiling and visibility are OK
Clouds: unknown
Weather: no significant weather observed at this time

METAR text: LTBJ 170250Z 01003KT 320V030 CAVOK 16/09 Q1015 NOSIG RMK RWY16 VRB01KT
Conditions at: LTBJ (IZMIR/ADNAN MEND, TR) observed 0250 UTC 17 September 2021
Temperature: 16.0°C (61°F)
Dewpoint: 9.0°C (48°F) [RH = 63%]
Pressure (altimeter): 29.97 inches Hg (1015.0 mb)
Winds: from the N (10 degrees) at 3 MPH (3 knots; 1.5 m/s)
Visibility: 6 or more miles (10+ km)
Ceiling: ceiling and visibility are OK
Clouds: unknown
Weather: no significant weather observed at this time

METAR text: LTBJ 170220Z VRB01KT CAVOK 18/10 Q1015 BECMG 36012KT RMK RWY16 08003KT 340V120
Conditions at: LTBJ (IZMIR/ADNAN MEND, TR) observed 0220 UTC 17 September 2021
Temperature: 18.0°C (64°F)
Dewpoint: 10.0°C (50°F) [RH = 59%]
Pressure (altimeter): 29.97 inches Hg (1015.0 mb)
Winds: variable direction winds at 1 MPH (1 knots; 0.5 m/s)
Visibility: 6 or more miles (10+ km)
Ceiling: ceiling and visibility are OK
Clouds: unknown
Weather: no significant weather observed at this time

METAR text: LTBJ 170150Z VRB01KT CAVOK 18/10 Q1015 BECMG 36012KT RMK RWY16 10004KT 040V120
Conditions at: LTBJ (IZMIR/ADNAN MEND, TR) observed 0150 UTC 17 September 2021
Temperature: 18.0°C (64°F)
Dewpoint: 10.0°C (50°F) [RH = 59%]
Pressure (altimeter): 29.97 inches Hg (1015.0 mb)
Winds: variable direction winds at 1 MPH (1 knots; 0.5 m/s)
Visibility: 6 or more miles (10+ km)
Ceiling: ceiling and visibility are OK
Clouds: unknown
Weather: no significant weather observed at this time

METAR text: LTBJ 170120Z 01004KT 340V040 CAVOK 19/10 Q1015 NOSIG RMK RWY16 VRB02KT
Conditions at: LTBJ (IZMIR/ADNAN MEND, TR) observed 0120 UTC 17 September 2021
Temperature: 19.0°C (66°F)
Dewpoint: 10.0°C (50°F) [RH = 56%]
Pressure (altimeter): 29.97 inches Hg (1015.0 mb)
Winds: from the N (10 degrees) at 5 MPH (4 knots; 2.1 m/s)
Visibility: 6 or more miles (10+ km)
Ceiling: ceiling and visibility are OK
Clouds: unknown
Weather: no significant weather observed at this time

METAR text: LTBJ 170050Z 02005KT CAVOK 20/10 Q1016 NOSIG RMK RWY16 10004KT 070V130
Conditions at: LTBJ (IZMIR/ADNAN MEND, TR) observed 0050 UTC 17 September 2021
Temperature: 20.0°C (68°F)
Dewpoint: 10.0°C (50°F) [RH = 53%]
Pressure (altimeter): 30.00 inches Hg (1016.0 mb)
Winds: from the NNE (20 degrees) at 6 MPH (5 knots; 2.6 m/s)
Visibility: 6 or more miles (10+ km)
Ceiling: ceiling and visibility are OK
Clouds: unknown
Weather: no significant weather observed at this time

METAR text: LTBJ 170020Z 04007KT CAVOK 22/10 Q1016 NOSIG RMK RWY16 03006KT 360V110
Conditions at: LTBJ (IZMIR/ADNAN MEND, TR) observed 0020 UTC 17 September 2021
Temperature: 22.0°C (72°F)
Dewpoint: 10.0°C (50°F) [RH = 46%]
Pressure (altimeter): 30.00 inches Hg (1016.0 mb)
Winds: from the NE (40 degrees) at 8 MPH (7 knots; 3.6 m/s)
Visibility: 6 or more miles (10+ km)
Ceiling: ceiling and visibility are OK
Clouds: unknown
Weather: no significant weather observed at this time

METAR text: LTBJ 162350Z 02007KT CAVOK 21/10 Q1016 NOSIG RMK RWY16 04007KT
Conditions at: LTBJ (IZMIR/ADNAN MEND, TR) observed 2350 UTC 16 September 2021
Temperature: 21.0°C (70°F)
Dewpoint: 10.0°C (50°F) [RH = 49%]
Pressure (altimeter): 30.00 inches Hg (1016.0 mb)
Winds: from the NNE (20 degrees) at 8 MPH (7 knots; 3.6 m/s)
Visibility: 6 or more miles (10+ km)
Ceiling: ceiling and visibility are OK
Clouds: unknown
Weather: no significant weather observed at this time

METAR text: LTBJ 162320Z 01009KT CAVOK 21/10 Q1016 NOSIG RMK RWY16 02010KT
Conditions at: LTBJ (IZMIR/ADNAN MEND, TR) observed 2320 UTC 16 September 2021
Temperature: 21.0°C (70°F)
Dewpoint: 10.0°C (50°F) [RH = 49%]
Pressure (altimeter): 30.00 inches Hg (1016.0 mb)
Winds: from the N (10 degrees) at 10 MPH (9 knots; 4.6 m/s)
Visibility: 6 or more miles (10+ km)
Ceiling: ceiling and visibility are OK
Clouds: unknown
Weather: no significant weather observed at this time

METAR text: LTBJ 162250Z 36008KT CAVOK 21/10 Q1016 NOSIG RMK RWY16 36009KT
Conditions at: LTBJ (IZMIR/ADNAN MEND, TR) observed 2250 UTC 16 September 2021
Temperature: 21.0°C (70°F)
Dewpoint: 10.0°C (50°F) [RH = 49%]
Pressure (altimeter): 30.00 inches Hg (1016.0 mb)
Winds: from the N (360 degrees) at 9 MPH (8 knots; 4.1 m/s)
Visibility: 6 or more miles (10+ km)
Ceiling: ceiling and visibility are OK
Clouds: unknown
Weather: no significant weather observed at this time

METAR text: LTBJ 162220Z 01007KT 350V050 CAVOK 22/10 Q1016 NOSIG RMK RWY16 36008KT
Conditions at: LTBJ (IZMIR/ADNAN MEND, TR) observed 2220 UTC 16 September 2021
Temperature: 22.0°C (72°F)
Dewpoint: 10.0°C (50°F) [RH = 46%]
Pressure (altimeter): 30.00 inches Hg (1016.0 mb)
Winds: from the N (10 degrees) at 8 MPH (7 knots; 3.6 m/s)
Visibility: 6 or more miles (10+ km)
Ceiling: ceiling and visibility are OK
Clouds: unknown
Weather: no significant weather observed at this time

METAR text: LTBJ 162150Z 35003KT 320V030 CAVOK 21/10 Q1016 NOSIG RMK RWY16 00000KT
Conditions at: LTBJ (IZMIR/ADNAN MEND, TR) observed 2150 UTC 16 September 2021
Temperature: 21.0°C (70°F)
Dewpoint: 10.0°C (50°F) [RH = 49%]
Pressure (altimeter): 30.00 inches Hg (1016.0 mb)
Winds: from the N (350 degrees) at 3 MPH (3 knots; 1.5 m/s)
Visibility: 6 or more miles (10+ km)
Ceiling: ceiling and visibility are OK
Clouds: unknown
Weather: no significant weather observed at this time

METAR text: LTBJ 162120Z 08004KT 030V110 CAVOK 23/10 Q1016 NOSIG RMK RWY16 03008KT
Conditions at: LTBJ (IZMIR/ADNAN MEND, TR) observed 2120 UTC 16 September 2021
Temperature: 23.0°C (73°F)
Dewpoint: 10.0°C (50°F) [RH = 44%]
Pressure (altimeter): 30.00 inches Hg (1016.0 mb)
Winds: from the E (80 degrees) at 5 MPH (4 knots; 2.1 m/s)
Visibility: 6 or more miles (10+ km)
Ceiling: ceiling and visibility are OK
Clouds: unknown
Weather: no significant weather observed at this time

METAR text: LTBJ 162050Z 03005KT CAVOK 23/11 Q1016 NOSIG RMK RWY16 36009KT
Conditions at: LTBJ (IZMIR/ADNAN MEND, TR) observed 2050 UTC 16 September 2021
Temperature: 23.0°C (73°F)
Dewpoint: 11.0°C (52°F) [RH = 47%]
Pressure (altimeter): 30.00 inches Hg (1016.0 mb)
Winds: from the NNE (30 degrees) at 6 MPH (5 knots; 2.6 m/s)
Visibility: 6 or more miles (10+ km)
Ceiling: ceiling and visibility are OK
Clouds: unknown
Weather: no significant weather observed at this time

METAR text: LTBJ 162020Z 01007KT CAVOK 23/12 Q1016 NOSIG RMK RWY16 01009KT
Conditions at: LTBJ (IZMIR/ADNAN MEND, TR) observed 2020 UTC 16 September 2021
Temperature: 23.0°C (73°F)
Dewpoint: 12.0°C (54°F) [RH = 50%]
Pressure (altimeter): 30.00 inches Hg (1016.0 mb)
Winds: from the N (10 degrees) at 8 MPH (7 knots; 3.6 m/s)
Visibility: 6 or more miles (10+ km)
Ceiling: ceiling and visibility are OK
Clouds: unknown
Weather: no significant weather observed at this time

METAR text: LTBJ 161950Z 01010KT CAVOK 23/12 Q1016 NOSIG RMK RWY16 01010KT
Conditions at: LTBJ (IZMIR/ADNAN MEND, TR) observed 1950 UTC 16 September 2021
Temperature: 23.0°C (73°F)
Dewpoint: 12.0°C (54°F) [RH = 50%]
Pressure (altimeter): 30.00 inches Hg (1016.0 mb)
Winds: from the N (10 degrees) at 12 MPH (10 knots; 5.1 m/s)
Visibility: 6 or more miles (10+ km)
Ceiling: ceiling and visibility are OK
Clouds: unknown
Weather: no significant weather observed at this time

METAR text: LTBJ 161920Z 01009KT CAVOK 23/12 Q1016 NOSIG RMK RWY16 01011KT
Conditions at: LTBJ (IZMIR/ADNAN MEND, TR) observed 1920 UTC 16 September 2021
Temperature: 23.0°C (73°F)
Dewpoint: 12.0°C (54°F) [RH = 50%]
Pressure (altimeter): 30.00 inches Hg (1016.0 mb)
Winds: from the N (10 degrees) at 10 MPH (9 knots; 4.6 m/s)
Visibility: 6 or more miles (10+ km)
Ceiling: ceiling and visibility are OK
Clouds: unknown
Weather: no significant weather observed at this time

METAR text: LTBJ 161850Z 34014KT CAVOK 24/12 Q1016 BECMG TL2000 VRB02KT
Conditions at: LTBJ (IZMIR/ADNAN MEND, TR) observed 1850 UTC 16 September 2021
Temperature: 24.0°C (75°F)
Dewpoint: 12.0°C (54°F) [RH = 47%]
Pressure (altimeter): 30.00 inches Hg (1016.0 mb)
Winds: from the NNW (340 degrees) at 16 MPH (14 knots; 7.2 m/s)
Visibility: 6 or more miles (10+ km)
Ceiling: ceiling and visibility are OK
Clouds: unknown
Weather: no significant weather observed at this time

Forecast for: LTBJ (IZMIR/ADNAN MEND, TR)
Text: TAF LTBJ 180440Z 1806/1906 VRB02KT CAVOK
Forecast period: 0600 to 0800 UTC 18 September 2021
Forecast type: FROM: standard forecast or significant change
Winds: variable direction winds at 2 MPH (2 knots; 1.0 m/s)
Visibility: 6 or more miles (10+ km)
Ceiling: unknown
Clouds: missing
Weather: NSW  (no significant weather)
Text: BECMG 1808/1811 FEW030 SCT100
Forecast period: 0800 to 1600 UTC 18 September 2021
Forecast type: BECOMING: Conditions expected to become as follows by 1100 UTC 18 September 2021
Winds: variable direction winds at 2 MPH (2 knots; 1.0 m/s)
Visibility: 6 or more miles (10+ km)
Ceiling: at least 12,000 feet AGL
Clouds: few clouds at 3000 feet AGL
scattered clouds at 10000 feet AGL
Weather: NSW  (no significant weather)
Text: TEMPO 1812/1815 27012KT
Forecast period: 1200 to 1500 UTC 18 September 2021
Forecast type: TEMPORARY: The following changes expected for less than half the time period
Winds: from the W (270 degrees) at 14 MPH (12 knots; 6.2 m/s)
Visibility: missing
Ceiling: unknown
Clouds: missing
Weather: no significant weather forecast for this period
Text: BECMG 1816/1818 CAVOK
Forecast period: 1600 UTC 18 September 2021 to 0600 UTC 19 September 2021
Forecast type: BECOMING: Conditions expected to become as follows by 1800 UTC 18 September 2021
Winds: variable direction winds at 2 MPH (2 knots; 1.0 m/s)
Visibility: 6 or more miles (10+ km)
Ceiling: unknown
Clouds: missing
Weather: NSW  (no significant weather)